Tuesday, June 19, 2018, 8:01 PM GMT
Back to Local

CYQY, Sydney, N. S.

Location: , , Canada Lat: 46.167
Local Time: 8:01 PM GMT (20:01 GMT) Lon: -60.05
Time Zone: GMT Elev: 183 ft

Show me the last for .
Show Decoded

2018-06-19 19:00 METAR CYQY 191900Z 36009KT 300V020 15SM SCT024 18/13 A2939 RMK SC4 SLP954
                 DENSITY ALT 1300FT =
2018-06-19 18:00 METAR CYQY 191800Z 02011G17KT 330V030 15SM BKN030 18/14 A2937 RMK SC5 SLP949
                 DENSITY ALT 1200FT =
2018-06-19 17:20 METAR CYQY 191720Z 32013G19KT 15SM BKN036 20/16 A2934 RMK SC5 WSHFT 1705 SLP939
                 DENSITY ALT 1600FT =
2018-06-19 17:00 METAR CYQY 191700Z 29013G19KT 15SM BKN025 21/16 A2934 RMK SC5 SLP936 DENSITY ALT
                 1700FT =
2018-06-19 16:00 METAR CYQY 191600Z 27011KT 15SM BKN023 19/16 A2933 RMK SC5 SLP933 DENSITY ALT
                 1500FT =
2018-06-19 15:44 METAR CYQY 191544Z 25013G19KT 15SM SCT013 BKN024 19/16 A2933 RMK SF3SC3 SLP934
                 DENSITY ALT 1400FT =
2018-06-19 15:00 METAR CYQY 191500Z 25008KT 15SM SCT008 BKN038 16/15 A2933 RMK NS4SC3 SLP933
                 DENSITY ALT 1100FT =
2018-06-19 14:25 METAR CYQY 191425Z 24011KT 15SM BKN006 OVC033 16/15 A2932 RMK NS5SC3 SLP932
                 DENSITY ALT 1100FT =
2018-06-19 14:00 METAR CYQY 191400Z 24012G18KT 7SM BKN004 OVC037 16/15 A2932 RMK NS5SC3 SLP931
                 DENSITY ALT 1000FT =
2018-06-19 13:45 METAR CYQY 191345Z 24013G19KT 7SM BKN004 OVC032 15/15 A2932 RMK NS5SC3 SLP931
                 DENSITY ALT 1000FT =
2018-06-19 13:00 METAR CYQY 191300Z 22012G17KT 7SM -RA SCT005 OVC029 14/13 A2931 RMK NS4SC4
                 SLP928 DENSITY ALT 900FT =
2018-06-19 12:37 METAR CYQY 191237Z 21010KT 7SM -RA SCT005 OVC030 14/13 A2931 RMK NS3SC5 SLP928
                 DENSITY ALT 800FT =
2018-06-19 12:00 METAR CYQY 191200Z 20009KT 4SM RA BR SCT005 BKN034 OVC078 13/13 A2932 RMK
                 NS4SC2AS2 PRESFR SLP930 DENSITY ALT 800FT =
2018-06-19 11:50 METAR CYQY 191150Z 22010G15KT 4SM RA BR SCT005 BKN034 OVC083 13/13 A2934 RMK
                 NS4SC2AS2 SLP936 DENSITY ALT 700FT =
2018-06-19 11:00 METAR CYQY 191100Z 24009G15KT 3SM -RA BR SCT005 OVC038 13/12 A2934 RMK NS4SC4
                 SLP939 DENSITY ALT 700FT =
2018-06-19 10:34 METAR CYQY 191034Z 23011G21KT 3SM -RA BR BKN005 OVC052 13/12 A2934 RMK NS6SC2
                 SLP936 DENSITY ALT 700FT =
2018-06-19 10:00 METAR CYQY 191000Z 22014G20KT 7SM -RA OVC007 13/12 A2933 RMK NS8 SLP933 DENSITY
                 ALT 700FT =
2018-06-19 09:08 METAR CYQY 190908Z 22014G24KT 7SM -RA BKN008 OVC021 13/13 A2933 RMK NS6SC2
                 SLP933 DENSITY ALT 800FT =
2018-06-19 09:00 METAR CYQY 190900Z 22015G23KT 3SM RA BR BKN005 BKN026 OVC043 13/13 A2933 RMK
                 ST5SC1SC2 PRESFR SLP933 DENSITY ALT 800FT =
2018-06-19 08:33 METAR CYQY 190833Z 22015G26KT 10SM RA BR BKN007 BKN021 OVC064 14/13 A2934 RMK
                 ST5SC2SC1 SLP936 DENSITY ALT 800FT =
2018-06-19 08:00 METAR CYQY 190800Z 22021G31KT 10SM -RA SCT007 OVC023 14/13 A2935 RMK ST4SC4
                 SLP941 DENSITY ALT 800FT =
2018-06-19 07:49 METAR CYQY 190749Z 22016G28KT 10SM -RA SCT007 BKN018 OVC036 14/13 A2935 RMK
                 ST4SC2SC2 PRESFR SLP942 DENSITY ALT 800FT =
2018-06-19 07:00 METAR CYQY 190700Z 22013G22KT 6SM -RA BR OVC005 13/13 A2939 RMK ST8 SLP954
                 DENSITY ALT 700FT =
2018-06-19 06:00 METAR CYQY 190600Z 21015G26KT 6SM -RA BR OVC006 13/12 A2942 RMK ST8 SLP966
                 DENSITY ALT 700FT =
2018-06-19 05:00 METAR CYQY 190500Z 22014G21KT 6SM -RA BR OVC007 13/12 A2946 RMK ST8 PRESFR
                 SLP979 DENSITY ALT 600FT =
2018-06-19 04:00 METAR CYQY 190400Z 22015G22KT 6SM -RA BR OVC007 13/12 A2951 RMK ST8 SLP997
                 DENSITY ALT 500FT =
2018-06-19 03:00 METAR CYQY 190300Z 22017G27KT 6SM -RA BR OVC006 13/12 A2953 RMK ST8 SLP003
                 DENSITY ALT 500FT =
2018-06-19 02:00 METAR CYQY 190200Z 21018G27KT 4SM -RA BR OVC006 12/12 A2956 RMK ST8 SLP013
                 DENSITY ALT 400FT =
2018-06-19 01:00 METAR CYQY 190100Z 21018G31KT 4SM -RA BR BKN007 OVC026 12/12 A2960 RMK ST7SC1
                 PRESFR SLP026 DENSITY ALT 300FT =
2018-06-19 00:43 METAR CYQY 190043Z 20017G30KT 6SM -RA BR FEW007 FEW015 12/12 A2962 RMK ST1SC1
                 SLP032 DENSITY ALT 300FT =
2018-06-19 00:04 METAR CYQY 190004Z 20023G35KT 2 1/2SM RA BR BKN006 OVC033 13/12 A2963 RMK ST7SC1
                 SLP038 DENSITY ALT 400FT =
2018-06-19 00:00 METAR CYQY 190000Z 19023G34KT 4SM -RA BR OVC006 13/12 A2963 RMK ST8 SLP038
                 DENSITY ALT 400FT =
2018-06-18 23:29 METAR CYQY 182329Z 18019G27KT 6SM -RA BR BKN006 OVC046 13/12 A2966 RMK ST6SC2
                 PRESFR SLP046 DENSITY ALT 300FT =
2018-06-18 23:03 METAR CYQY 182303Z 19016G24KT 4SM RA BR OVC005 12/12 A2970 RMK ST8 SLP060 =
2018-06-18 23:00 METAR CYQY 182300Z 20012G25KT 4SM -RA BR BKN005 OVC054 12/11 A2970 RMK ST7SC1
                 R/01 SLP061 =
2018-06-18 22:00 METAR CYQY 182200Z 18016G24KT 6SM -RA BR OVC004 11/10 A2975 RMK ST8 PRESFR
                 SLP077 =
2018-06-18 21:40 METAR CYQY 182140Z 19020G29KT 6SM -RA BR OVC004 11/10 A2977 RMK ST8 PRESFR
                 SLP083 =
2018-06-18 21:00 METAR CYQY 182100Z 20013G20KT 10SM -RA OVC005 10/09 A2981 RMK ST8 SLP098 =
2018-06-18 20:52 METAR CYQY 182052Z 19013G21KT 10SM -RA OVC005 10/09 A2981 RMK ST8 PRESFR SLP099
                 =

Support USWX by starting your Amazon purchase here.